Add date Part number Description Manufacture PDF
04-18-2016 LP9435LT1G LESHAN RADIO COMPANY, LTD. 30V P-C LRC LP9435LT1G datasheet
04-18-2016 LTC2421 U U LTC2421/LTC2422 1-/2-Channel 2 Linear LTC2421 datasheet
04-18-2016 LTC2422 U U LTC2421/LTC2422 1-/2-Channel 2 Linear LTC2422 datasheet
04-18-2016 LTC2433-1 U U LTC2433-1 Differential Input 1 Linear LTC2433-1 datasheet
04-18-2016 LTC2446 U U LTC2446/LTC2447 24-Bit High S Linear LTC2446 datasheet
04-18-2016 LTC2447 U U LTC2446/LTC2447 24-Bit High S Linear LTC2447 datasheet
04-18-2016 LTC2945 LTC2945 Wide Range I2C Power Monito Linear LTC2945 datasheet
04-18-2016 LTC3111 FEATURES n Regulated Output with V Linear LTC3111 datasheet
04-18-2016 LTC3566-2 FEATURES POWER MANAGER ■ High Ef Linear LTC3566-2 datasheet
04-18-2016 LTC3614 Features n 4A Output Current n 2. Linear LTC3614 datasheet
04-18-2016 LTC3646 FEATURES nn Wide Input Voltage Rang Linear LTC3646 datasheet
04-18-2016 LTC3646-1 FEATURES nn Wide Input Voltage Rang Linear LTC3646-1 datasheet
04-18-2016 LTC3823 LTC3823 Fast No RSENSETM Step-Down Linear LTC3823 datasheet
04-18-2016 WSH134 WSH134 Unipolar Hall Effect Switch Winson Semiconductor WSH134 datasheet
04-18-2016 WSH136 WSH136 Linear Hall Effect Sensor IC Winson Semiconductor WSH136 datasheet
04-18-2016 WSH181 WSH181 Hall Effect Switch IC Featu Winson Semiconductor WSH181 datasheet
04-18-2016 WSH1132 WSH1132 Unipolar Hall Effect Switch Winson Semiconductor WSH1132 datasheet
04-18-2016 WSH133 WSH133 Bipolar Hall Effect Switch I Winson Semiconductor WSH133 datasheet
04-18-2016 WSH137 WSH137 Linear Hall Effect Sensor IC Winson Semiconductor WSH137 datasheet
04-18-2016 WSH138 WSH138 Linear Hall Effect Sensor IC Winson Semiconductor WSH138 datasheet
04-18-2016 WSH415 WSH415 Hall Effect IC with Two comp Winson Semiconductor WSH415 datasheet
04-18-2016 WSH49E WSH49E Linear Hall Effect Sensor IC Winson Semiconductor WSH49E datasheet
04-18-2016 HFD630 HFD630_HFU630 Dec 2012 HFD630 / H SemiHow HFD630 datasheet
04-18-2016 HFU630 HFD630_HFU630 Dec 2012 HFD630 / H SemiHow HFU630 datasheet
04-18-2016 HFD8N70U HFD8N70U_HFU8N70U HFD8N70U / HFU8N SemiHow HFD8N70U datasheet
04-18-2016 HFU8N70U HFD8N70U_HFU8N70U HFD8N70U / HFU8N SemiHow HFU8N70U datasheet
04-18-2016 HFN6N70U HFN6N70U HFN6N70U 700V N-Channel M SemiHow HFN6N70U datasheet
04-18-2016 HFP10N60U HFP10N60U HFP10N60U 600V N-Channel SemiHow HFP10N60U datasheet
04-18-2016 HFP10N65U HFP10N65U HFP10N65U 650V N-Channel SemiHow HFP10N65U datasheet
04-18-2016 HFP10N80 HFP10N80 Dec 2010 HFP10N80 800V N SemiHow HFP10N80 datasheet
04-18-2016 HFP12N60U HFP12N60U HFP12N60U 600V N-Channel SemiHow HFP12N60U datasheet
04-18-2016 HFP12N65U HFP12N65U HFP12N65U 650V N-Channel SemiHow HFP12N65U datasheet
04-18-2016 HFP13N50U HFP13N50U HFP13N50U 500V N-Channel SemiHow HFP13N50U datasheet
04-18-2016 HFP13N60U HFP13N60U HFP13N60U 600V N-Channel SemiHow HFP13N60U datasheet
04-18-2016 HFP13N65U HFP13N65U HFP13N65U 650V N-Channel SemiHow HFP13N65U datasheet
04-18-2016 HFP18N50U HFP18N50U HFP18N50U 500V N-Channel SemiHow HFP18N50U datasheet
04-18-2016 HFP2N60U HFP2N60U HFP2N60U 600V N-Channel M SemiHow HFP2N60U datasheet
04-18-2016 HFP2N65U HFP2N65U HFP2N65U 650V N-Channel M SemiHow HFP2N65U datasheet
04-18-2016 HFP2N90 HFP2N90 Feb 2014 HFP2N90 900V N-C SemiHow HFP2N90 datasheet
04-18-2016 HFP4N90 HFP4N90 March 2014 HFP4N90 900V N SemiHow HFP4N90 datasheet
04-18-2016 HFP50N06GC HFP50N06GC Dec 2014 HFP50N06GC 60 SemiHow HFP50N06GC datasheet
04-18-2016 HFP5N50U HFP5N50U HFP5N50U 500V N-Channel M SemiHow HFP5N50U datasheet
04-18-2016 HFP5N60U HFP5N60U HFP5N60U 600V N-Channel M SemiHow HFP5N60U datasheet
04-18-2016 HFP5N65U HFP5N65U HFP5N65U 650V N-Channel M SemiHow HFP5N65U datasheet
04-18-2016 HFP5N70S HFP5N70S Aug 2012 HFP5N70S 700V N SemiHow HFP5N70S datasheet
04-18-2016 HFP5N80 HFP5N80 May 2013 HFP5N80 800V N-C SemiHow HFP5N80 datasheet
04-18-2016 HFP640G HFP640G Feb 2015 HFP640G 200V N-C SemiHow HFP640G datasheet
04-18-2016 HFP6N60U HFP6N60U HFP6N60U 600V N-Channel M SemiHow HFP6N60U datasheet
04-18-2016 HFP6N65U HFP6N65U HFP6N65U 650V N-Channel M SemiHow HFP6N65U datasheet
04-18-2016 HFP6N70U HFP6N70U HFP6N70U 700V N-Channel M SemiHow HFP6N70U datasheet
04-18-2016 HFP730S HFP730S Nov 2013 HFP730S 400V N-C SemiHow HFP730S datasheet
04-18-2016 HFP730U HFP730U HFP730U 400V N-Channel MOS SemiHow HFP730U datasheet
04-18-2016 HFP8N60U HFP8N60U HFP8N60U 600V N-Channel M SemiHow HFP8N60U datasheet
04-18-2016 SKI03087 30 V, 40 A, 7.6 mΩ Low RDS(ON) N c Sanken SKI03087 datasheet
04-18-2016 HFP8N65U HFP8N65U HFP8N65U 650V N-Channel M SemiHow HFP8N65U datasheet
04-18-2016 HFP8N70U HFP8N70U HFP8N70U 700V N-Channel M SemiHow HFP8N70U datasheet
04-18-2016 HFS10N60U HFS10N60U HFS10N60U 600V N-Channel SemiHow HFS10N60U datasheet
04-18-2016 HFS2N60U HFS2N60U HFS2N60U 600V N-Channel M SemiHow HFS2N60U datasheet
04-18-2016 HFS2N65U HFS2N65U HFS2N65U 650V N-Channel M SemiHow HFS2N65U datasheet
04-18-2016 HFS2N90 HFS2N90 Feb 2014 HFS2N90 900V N-C SemiHow HFS2N90 datasheet
04-18-2016 HFS4N90 HFS4N90 March 2014 HFS4N90 900V N SemiHow HFS4N90 datasheet
04-18-2016 HFS5N50U HFS5N50U HFS5N50U 500V N-Channel M SemiHow HFS5N50U datasheet
04-18-2016 HFS5N60U HFS5N60U HFS5N60U 600V N-Channel M SemiHow HFS5N60U datasheet
04-18-2016 HFS5N65U HFS5N65U HFS5N65U 650V N-Channel M SemiHow HFS5N65U datasheet
04-18-2016 HFS5N70S HFS5N70S Aug 2012 HFS5N70S 700V N SemiHow HFS5N70S datasheet
04-18-2016 HFS5N80 HFS5N80 May 2013 HFS5N80 800V N-C SemiHow HFS5N80 datasheet
04-18-2016 HFS6N60U HFS6N60U HFS6N60U 600V N-Channel M SemiHow HFS6N60U datasheet
04-18-2016 HFS6N65U HFS6N65U HFS6N65U 650V N-Channel M SemiHow HFS6N65U datasheet
04-18-2016 SKI03036 30 V, 80 A, 3.2 mΩ Low RDS(ON) N c Sanken SKI03036 datasheet
04-18-2016 SKI07171 75 V, 46 A, 10.4 mΩ Low RDS(ON) N Sanken SKI07171 datasheet
04-18-2016 SKI03021 30 V, 85 A, 2.1 mΩ Low RDS(ON) N c Sanken SKI03021 datasheet
04-18-2016 SKI03063 30 V, 40 A, 5.5 mΩ Low RDS(ON) N c Sanken SKI03063 datasheet
04-18-2016 SKI04024 40 V, 85 A, 2.6 mΩ Low RDS(ON) N c Sanken SKI04024 datasheet
04-18-2016 SKI04033 40 V, 80 A, 3.1 mΩ Low RDS(ON) N c Sanken SKI04033 datasheet
04-18-2016 SKI04044 40 V, 80 A, 4.1 mΩ Low RDS(ON) N c Sanken SKI04044 datasheet
04-18-2016 SKI06048 60 V, 85 A, 3.9 mΩ Low RDS(ON) N c Sanken SKI06048 datasheet
04-18-2016 SKI06073 60 V, 78 A, 5.1 mΩ Low RDS(ON) N c Sanken SKI06073 datasheet
04-18-2016 SKI06106 60 V, 57 A, 7.0 mΩ Low RDS(ON) N c Sanken SKI06106 datasheet
04-18-2016 SKI07074 75 V, 85 A, 5.3 mΩ Low RDS(ON) N c Sanken SKI07074 datasheet
04-18-2016 SKI07114 75 V, 62 A, 7.2 mΩ Low RDS(ON) N c Sanken SKI07114 datasheet
04-18-2016 HFS6N70U HFS6N70U HFS6N70U 700V N-Channel M SemiHow HFS6N70U datasheet
04-18-2016 SKI10123 100 V, 66 A, 8.8 mΩ Low RDS(ON) N Sanken SKI10123 datasheet
04-18-2016 SKI10195 100 V, 47 A, 13.2 mΩ Low RDS(ON) N Sanken SKI10195 datasheet
04-18-2016 SKI10297 100 V, 34 A, 20.2 mΩ Low RDS(ON) N Sanken SKI10297 datasheet
04-18-2016 HFS8N60U HFS8N60U HFS8N60U 600V N-Channel M SemiHow HFS8N60U datasheet
04-18-2016 HFS8N65U HFS8N65U HFS8N65U 650V N-Channel M SemiHow HFS8N65U datasheet
04-18-2016 HFS8N70S HFS8N70S Dec 2012 HFS8N70S 700V N SemiHow HFS8N70S datasheet
04-18-2016 HFS8N70U HFS8N70U HFS8N70U 700V N-Channel M SemiHow HFS8N70U datasheet
04-18-2016 HFS8N80 HFS8N80 Dec 2010 HFS8N80 800V N-C SemiHow HFS8N80 datasheet
04-18-2016 ER1602D ER1602D thru ER1606D ® ER1602D/E Thinki Semiconductor ER1602D datasheet
04-18-2016 ER1604D ER1602D thru ER1606D ® ER1602D/E Thinki Semiconductor ER1604D datasheet
04-18-2016 ER1606D ER1602D thru ER1606D ® ER1602D/E Thinki Semiconductor ER1606D datasheet
04-18-2016 FML22S FML22S thru FML26S ® Pb Free Pla Thinki Semiconductor FML22S datasheet
04-18-2016 FML23S FML22S thru FML26S ® Pb Free Pla Thinki Semiconductor FML23S datasheet
04-18-2016 FML24S FML22S thru FML26S ® Pb Free Pla Thinki Semiconductor FML24S datasheet
04-18-2016 FML26S FML22S thru FML26S ® Pb Free Pla Thinki Semiconductor FML26S datasheet
04-18-2016 FMX22S FMX22S thru FMX26S ® Pb Free Pla Thinki Semiconductor FMX22S datasheet
04-18-2016 FMX23S FMX22S thru FMX26S ® Pb Free Pla Thinki Semiconductor FMX23S datasheet
04-18-2016 FMX24S FMX22S thru FMX26S ® Pb Free Pla Thinki Semiconductor FMX24S datasheet
04-18-2016 FMX26S FMX22S thru FMX26S ® Pb Free Pla Thinki Semiconductor FMX26S datasheet
04-18-2016 GBJ15005 GBJ15005 thru GBJ1510 ® Pb Free Thinki Semiconductor GBJ15005 datasheet
04-18-2016 GBJ1501 GBJ15005 thru GBJ1510 ® Pb Free Thinki Semiconductor GBJ1501 datasheet
04-18-2016 GBJ1502 GBJ15005 thru GBJ1510 ® Pb Free Thinki Semiconductor GBJ1502 datasheet
04-18-2016 GBJ1504 GBJ15005 thru GBJ1510 ® Pb Free Thinki Semiconductor GBJ1504 datasheet
04-18-2016 GBJ1506 GBJ15005 thru GBJ1510 ® Pb Free Thinki Semiconductor GBJ1506 datasheet
04-18-2016 GBJ1508 GBJ15005 thru GBJ1510 ® Pb Free Thinki Semiconductor GBJ1508 datasheet
04-18-2016 GBJ1510 GBJ15005 thru GBJ1510 ® Pb Free Thinki Semiconductor GBJ1510 datasheet
04-18-2016 A992 NEC A992 datasheet
04-18-2016 ACE1020M ACE1020M N-Channel 200-V MOSFET De ACE Technology ACE1020M datasheet
04-18-2016 ACE1420M ACE1420M N-Channel 20-V MOSFET Des ACE Technology ACE1420M datasheet
04-18-2016 ACE1421M ACE1421M P-Channel 20-V MOSFET Des ACE Technology ACE1421M datasheet
04-18-2016 ACE1512E ACE1512E N-Channel Enhancement Mode ACE Technology ACE1512E datasheet
04-18-2016 ACE1551A ACE1551A N-Channel Enhancement Mode ACE Technology ACE1551A datasheet
04-18-2016 ACE2006M ACE2006M N-Channel 60-V MOSFET Desc ACE Technology ACE2006M datasheet
04-18-2016 ACE2010M ACE2010M P-Channel -100V MOSFET Des ACE Technology ACE2010M datasheet
04-18-2016 ACE2020M ACE2020M N-Channel 200-V MOSFET De ACE Technology ACE2020M datasheet
04-18-2016 ACE2302M ACE2302M N-Channel 20-V MOSFET Des ACE Technology ACE2302M datasheet
04-18-2016 ACE2308E ACE2308E N-Channel 30-V MOSFET Fea ACE Technology ACE2308E datasheet
04-18-2016 ACE24C128B ACE24C128B/256B/512B Two-wire Seria ACE Technology ACE24C128B datasheet
04-18-2016 ACE24C256B ACE24C128B/256B/512B Two-wire Seria ACE Technology ACE24C256B datasheet
04-18-2016 ACE24C512B ACE24C128B/256B/512B Two-wire Seria ACE Technology ACE24C512B datasheet
04-18-2016 ACE25C200G ACE25C200G 2M BIT SPI NOR FLASH Des ACE Technology ACE25C200G datasheet
04-18-2016 ACE25Q800G ACE25Q800G 8M BIT SPI NOR FLASH Mem ACE Technology ACE25Q800G datasheet
04-18-2016 ACE303 ACE303 High-precision Low Voltage D ACE Technology ACE303 datasheet
04-18-2016 ACE345 ACE345 Adjustable USB Load Current ACE Technology ACE345 datasheet
04-18-2016 ACE518C ACE518C 1A Ultra-Low Vin Low Dropou ACE Technology ACE518C datasheet
04-18-2016 ACE535C ACE535C 300mA High PSRR, Fast Respo ACE Technology ACE535C datasheet
04-18-2016 ACE724C ACE724C 18V 2A Synchronous PFM/PWM ACE Technology ACE724C datasheet
04-18-2016 ACE727C ACE727C 600KHz, 16V, 2A Synchronous ACE Technology ACE727C datasheet
04-18-2016 ACE752D ACE752D 120KHz 3.5A Buck DC-DC Conv ACE Technology ACE752D datasheet
04-18-2016 ACE78L05S ACE78L05S 5V 3-Terminal Positive Vo ACE Technology ACE78L05S datasheet
04-18-2016 ACE78L05   www..com ACE78LXX  ACE Technology ACE78L05 datasheet
04-18-2016 ACE78L06   www..com ACE78LXX  ACE Technology ACE78L06 datasheet
04-18-2016 ACE78L08   www..com ACE78LXX  ACE Technology ACE78L08 datasheet
04-18-2016 ACE78L09   www..com ACE78LXX  ACE Technology ACE78L09 datasheet
04-18-2016 ACE78L10   www..com ACE78LXX  ACE Technology ACE78L10 datasheet
04-18-2016 ACE78L12   www..com ACE78LXX  ACE Technology ACE78L12 datasheet
04-18-2016 ACE78L15   www..com ACE78LXX  ACE Technology ACE78L15 datasheet
04-18-2016 ACE78L18   www..com ACE78LXX  ACE Technology ACE78L18 datasheet
04-18-2016 ACE78L24   www..com ACE78LXX  ACE Technology ACE78L24 datasheet
04-18-2016 AUIRF7647S2TR   AUTOMOTIVE GRADE AUIRF7647S2TR Infineon AUIRF7647S2TR datasheet
04-18-2016 AUIRF7648M2TR   AUTOMOTIVE GRADE AUIRF7648M2TR Infineon AUIRF7648M2TR datasheet
04-18-2016 AUIRF7665S2TR   AUTOMOTIVE GRADE AUIRF7665S2TR Infineon AUIRF7665S2TR datasheet
04-18-2016 AUIRF7669L2TR   AUTOMOTIVE GRADE AUIRF7669L2TR Infineon AUIRF7669L2TR datasheet
04-18-2016 AUIRF7675M2TR   AUTOMOTIVE GRADE AUIRF7675M2TR Infineon AUIRF7675M2TR datasheet
04-18-2016 AUIRF7734M2TR   AUTOMOTIVE GRADE AUIRF7734M2TR Infineon AUIRF7734M2TR datasheet
04-18-2016 AUIRF7738L2TR   AUTOMOTIVE GRADE AUIRF7738L2TR Infineon AUIRF7738L2TR datasheet
04-18-2016 AUIRF7739L2TR   AUTOMOTIVE GRADE AUIRF7739L2TR Infineon AUIRF7739L2TR datasheet
04-18-2016 AUIRF7759L2TR   AUTOMOTIVE GRADE AUIRF7759L2TR Infineon AUIRF7759L2TR datasheet
04-18-2016 AUIRF7759L2TR AUTOMOTIVE GRADE PD - 96426 AUIRF7 International Rectifier AUIRF7759L2TR datasheet
04-18-2016 AUIRF7759L2TR1 AUTOMOTIVE GRADE PD - 96426 AUIRF7 International Rectifier AUIRF7759L2TR1 datasheet
04-18-2016 AUIRF7769L2TR   AUTOMOTIVE GRADE AUIRF7769L2TR Infineon AUIRF7769L2TR datasheet
04-18-2016 AUIRFS4115   AUTOMOTIVE GRADE Features  A Infineon AUIRFS4115 datasheet
04-18-2016 AUIRFSL4115   AUTOMOTIVE GRADE Features  A Infineon AUIRFSL4115 datasheet
04-18-2016 AUIRFS4127 Features  Advanced Process Te Infineon AUIRFS4127 datasheet
04-18-2016 AUIRFSL4127 Features  Advanced Process Te Infineon AUIRFSL4127 datasheet
04-18-2016 AUIRFSA8409-7P   AUTOMOTIVE GRADE AUIRFSA8409-7 Infineon AUIRFSA8409-7P datasheet
04-18-2016 AUIRL7766M2TR   AUTOMOTIVE GRADE AUIRL7766M2TR Infineon AUIRL7766M2TR datasheet
04-18-2016 AP6680AGM-HF Advanced Power Electronics Corp. A Advanced Power Electronics AP6680AGM-HF datasheet
04-18-2016 AUIRL7766M2TR PD - 97648 AUTOMOTIVE GRADE AUIRL7 International Rectifier AUIRL7766M2TR datasheet
04-18-2016 AUIRL7766M2TR1 PD - 97648 AUTOMOTIVE GRADE AUIRL7 International Rectifier AUIRL7766M2TR1 datasheet
04-18-2016 AUIRLS8409-7P   AUIRLS8409-7P Features  Adva Infineon AUIRLS8409-7P datasheet
04-18-2016 BCX52 RoHS BCX52 BCX52 TRANSISTOR (PNP) WEJ BCX52 datasheet
04-18-2016 BCX54 RoHS BCX54 BCX54 TRANSISTOR (NPN) WEJ BCX54 datasheet
04-18-2016 BCX54 SOT89 NPN SILICON PLANAR MEDIUM POW Zetex Semiconductors BCX54 datasheet
04-18-2016 BCX55 SOT89 NPN SILICON PLANAR MEDIUM POW Zetex Semiconductors BCX55 datasheet
04-18-2016 BCX56 SOT89 NPN SILICON PLANAR MEDIUM POW Zetex Semiconductors BCX56 datasheet
04-18-2016 BCX54 SMD Type Transistors NPN Medium Po Kexin BCX54 datasheet
04-18-2016 BCX55 SMD Type Transistors NPN Medium Po Kexin BCX55 datasheet
04-18-2016 BCX56 SMD Type Transistors NPN Medium Po Kexin BCX56 datasheet
04-18-2016 BCX54 BCX54/BCX55/BCX56 NPN Plastic-Enca WEITRON BCX54 datasheet
04-18-2016 BCX55 BCX54/BCX55/BCX56 NPN Plastic-Enca WEITRON BCX55 datasheet
04-18-2016 BCX56 BCX54/BCX55/BCX56 NPN Plastic-Enca WEITRON BCX56 datasheet
04-18-2016 BCX54 Elektronische Bauelemente BCX54 NP SeCoS BCX54 datasheet
04-18-2016 BCX54 BCX 54 / 55 / 56 NPN SILICON PLANAR Diodes BCX54 datasheet
04-18-2016 BCX55 BCX 54 / 55 / 56 NPN SILICON PLANAR Diodes BCX55 datasheet
04-18-2016 BCX56 BCX 54 / 55 / 56 NPN SILICON PLANAR Diodes BCX56 datasheet
04-18-2016 BCX55 RoHS BCX55 BCX55 TRANSISTOR (NPN) WEJ BCX55 datasheet
04-18-2016 BCX56 RoHS BCX56 BCX56 TRANSISTOR (NPN) WEJ BCX56 datasheet
04-18-2016 BF620 RoHS BF620 BF620 TRANSISTOR (NPN) WEJ BF620 datasheet
04-18-2016 BF620 PLANETA BF620 The Small-signal NP PLANETA BF620 datasheet
04-18-2016 BF620 SMD Type Transistors Silicon NPN Kexin BF620 datasheet
04-18-2016 BF622 SMD Type Transistors Silicon NPN Kexin BF622 datasheet
04-18-2016 BF620 BF620 TRANSISTOR (NPN) FEATURES z Jin Yu Semiconductor BF620 datasheet
04-18-2016 2SC2714 RoHS 2SC2714 NPN EPITAXIAL SILICON WEJ 2SC2714 datasheet
04-18-2016 CZT5401 RoHS CZT5401 CZT5401 TRANSISTOR (P WEJ CZT5401 datasheet
04-18-2016 CZT5401 SMD Type Transistors PNP Silicon Kexin CZT5401 datasheet
04-18-2016 CZT5401 Elektronische Bauelemente CZT5401 SeCoS CZT5401 datasheet
04-18-2016 D882 RoHS D882 D882 TRANSISTOR (NPN) D WEJ D882 datasheet
04-18-2016 FL14KM-10A PRELIMINARYNSootmicee:pTahriasmiset Mitsubishi FL14KM-10A datasheet
04-18-2016 FL14KM-12A FL14KM-12A MITMSIUTBSIUSBHIISNHcI Mitsubishi FL14KM-12A datasheet
04-18-2016 FL14KM-8A FL14KM-8A MITMSIUTBSIUSBHIISNHcI h Mitsubishi FL14KM-8A datasheet
04-18-2016 FL14KM-9A FL14KM-9A MITMSIUTBSIUSBHIISNHcI h Mitsubishi FL14KM-9A datasheet
04-18-2016 FL20KM-5A PRELIMINARYNSootmicee:pTahriasmiset Mitsubishi FL20KM-5A datasheet
04-18-2016 HAT2057RA HAT2057RA Silicon N Channel Power M Renesas HAT2057RA datasheet
04-18-2016 KTA1663 RoHS KTA1663 KTA1663 TRANSISTOR (P WEJ KTA1663 datasheet
04-18-2016 KTA1663 J BH E SEMICONDUCTOR TECHNICAL DAT KEC KTA1663 datasheet
04-18-2016 KTA1663 PNP Epitaxial Planar Transistors P WEITRON KTA1663 datasheet
04-18-2016 KTA1663 KTA1663 TRANSISTOR (PNP) FEATURES Jin Yu Semiconductor KTA1663 datasheet
04-18-2016 KTA1664 RoHS KTA1664 KTA1664 TRANSISTOR (P WEJ KTA1664 datasheet
04-18-2016 KTA1664 J BR E SEMICONDUCTOR TECHNICAL DAT KEC KTA1664 datasheet
04-18-2016 KTA1664 KTA1664 TRANSISTOR (PNP) FEATURES Jin Yu Semiconductor KTA1664 datasheet
04-18-2016 KTA1666 RoHS KTA1666 KTA1666 TRANSISTOR (P WEJ KTA1666 datasheet
04-18-2016 KTA1666 NPN EPITAXIAL PLANAR TRANSISTOR P b WEITRON KTA1666 datasheet
04-18-2016 KTA1666 TRANSISTOR (PNP) FEATURES z Complem Jin Yu Semiconductor KTA1666 datasheet
04-18-2016 KTA1666 SEMICONDUCTOR TECHNICAL DATA KTA16 KEC KTA1666 datasheet
04-18-2016 KTA2015 RoHS KTA2015 SOT-323 KTA2015 TRAN WEJ KTA2015 datasheet
04-18-2016 KTA2015 SEMICONDUCTOR TECHNICAL DATA GENERA KEC KTA2015 datasheet
04-18-2016 KTA2015 PNP General Purpose Transistors P b WEITRON KTA2015 datasheet
04-18-2016 KTA2015 KTA2015 TRANSISTOR (PNP) FEATURES Jin Yu Semiconductor KTA2015 datasheet
04-18-2016 KTA2015 PNP Silicon Epitaxial Planar Transi GME KTA2015 datasheet
04-18-2016 KTC4076 RoHS KTC4076 KTC4076 TRANSISTOR (N WEJ KTC4076 datasheet
04-18-2016 KTC4076 SEMICONDUCTOR TECHNICAL DATA GENERA KEC KTC4076 datasheet
04-18-2016 KTC4076 KTC4076 TRANSISTOR (NPN) FEATURES Jin Yu Semiconductor KTC4076 datasheet
04-18-2016 KTC4347 RoHS KTC4347 KTC4373 TRANSISTOR (N WEJ KTC4347 datasheet
04-18-2016 KTC4374 RoHS KTC4374 KTC4374 TRANSISTOR (N WEJ KTC4374 datasheet
04-18-2016 KTC4374 J BE E SEMICONDUCTOR TECHNICAL DAT KEC KTC4374 datasheet
04-18-2016 KTC4376 RoHS KTC4376 KTC4376 TRANSISTOR (N WEJ KTC4376 datasheet
04-18-2016 KTC4376 J BP E SEMICONDUCTOR TECHNICAL DAT KEC KTC4376 datasheet
04-18-2016 KTC4377 RoHS KTC4377 KTC4377 TRANSISTOR (N WEJ KTC4377 datasheet
04-18-2016 KTC4377 SEMICONDUCTOR TECHNICAL DATA KTC43 KEC KTC4377 datasheet
04-18-2016 KTD1898 RoHS KTD1898 KTD1898 TRANSISTOR (N WEJ KTD1898 datasheet
04-18-2016 KTD1898 SMD Type NPN Transistors KTD1898 Kexin KTD1898 datasheet
04-18-2016 LT3462 U U LT3462/LT3462A Inverting 1.2M Linear LT3462 datasheet
04-18-2016 LT3462A U U LT3462/LT3462A Inverting 1.2M Linear LT3462A datasheet
04-18-2016 LT3483A FEATURES n Internal 40V Schottky D Linear LT3483A datasheet
04-18-2016 GL823 Genesys Logic, Inc. GL823 USB 2.0 S GENESYS LOGIC GL823 datasheet
04-18-2016 SKKT131 VRSM VRRM (dv/ VDRM dt)cr V V V/µs Semikron International SKKT131 datasheet
04-18-2016 SKKH131 VRSM VRRM (dv/ VDRM dt)cr V V V/µs Semikron International SKKH131 datasheet
04-18-2016 SKKT161 VRSM VRRM (dv/ VDRM dt)cr V V V/µs Semikron International SKKT161 datasheet
04-18-2016 SKKH161 VRSM VRRM (dv/ VDRM dt)cr V V V/µs Semikron International SKKH161 datasheet
04-18-2016 K2200 2SK2200 TOSHIBA Field Effect Transi Toshiba Semiconductor K2200 datasheet
04-18-2016 FDMS7700S FDMS7700S Dual N-Channel PowerTrenc Fairchild Semiconductor FDMS7700S datasheet
04-18-2016 CLAA101FP05XG Chunghwa Picture Tubes, Ltd. Techni CHUNGHWA PICTURE TUBES CLAA101FP05XG datasheet
04-18-2016 2SB690 ETC 2SB690 datasheet
04-18-2016 B690 ETC B690 datasheet
04-18-2016 WH2004A-YGH-CT Winstar Display Co., LTD 華凌光 Winstar WH2004A-YGH-CT datasheet
04-18-2016 WH2004A-CFH-JT Winstar Display Co., LTD 華凌光 Winstar WH2004A-CFH-JT datasheet
04-18-2016 TD1484 T  echcode® DATASHEET       Techcode TD1484 datasheet
04-18-2016 OCP8151 OCP8151 高精度原边反馈恒 Orient Chip OCP8151 datasheet
04-18-2016 LTB3468 Ligent in telligen t phot onics LT Ligent LTB3468 datasheet
04-18-2016 W005G W005G, W01G, W02G, W04G, W06G, W08G Vishay W005G datasheet
04-18-2016 W01G W005G, W01G, W02G, W04G, W06G, W08G Vishay W01G datasheet
04-18-2016 W02G W005G, W01G, W02G, W04G, W06G, W08G Vishay W02G datasheet
04-18-2016 W04G W005G, W01G, W02G, W04G, W06G, W08G Vishay W04G datasheet
04-18-2016 W06G W005G, W01G, W02G, W04G, W06G, W08G Vishay W06G datasheet
04-18-2016 W08G W005G, W01G, W02G, W04G, W06G, W08G Vishay W08G datasheet
04-18-2016 W10G W005G, W01G, W02G, W04G, W06G, W08G Vishay W10G datasheet
04-18-2016 SBL2030PT www.vishay.com SBL2030PT, SBL2040P Vishay SBL2030PT datasheet
04-18-2016 SBL2040PT www.vishay.com SBL2030PT, SBL2040P Vishay SBL2040PT datasheet
04-18-2016 SBL2030PT Certificate TH97/10561QM Certifica EIC SBL2030PT datasheet
04-18-2016 SBL2040PT Certificate TH97/10561QM Certifica EIC SBL2040PT datasheet
04-18-2016 SBL2030PT SBL2030PT thru SBL2045PT Low VF Sch Sirectifier SBL2030PT datasheet
04-18-2016 SBL2035PT SBL2030PT thru SBL2045PT Low VF Sch Sirectifier SBL2035PT datasheet
04-18-2016 SBL2040PT SBL2030PT thru SBL2045PT Low VF Sch Sirectifier SBL2040PT datasheet
04-18-2016 SBL2045PT SBL2030PT thru SBL2045PT Low VF Sch Sirectifier SBL2045PT datasheet
04-18-2016 SBR20A100CTB   Green SBR20A100CTB 20A SBR® SU Diodes SBR20A100CTB datasheet
04-18-2016 SBR20A100CTE Features • Low Forward Voltage Dr Diodes SBR20A100CTE datasheet
04-18-2016 SBR20A120CTE NEW PRODUCT Features • Low Forwa Diodes SBR20A120CTE datasheet
04-18-2016 SBR20A120CT Product Summary VRRM (V) 120 IO ( Diodes SBR20A120CT datasheet
04-18-2016 SBR20A120CTFP Product Summary VRRM (V) 120 IO ( Diodes SBR20A120CTFP datasheet
04-18-2016 SBR20A60CTB Features • Low Forward Voltage Dr Diodes SBR20A60CTB datasheet
04-18-2016 TSF30U60C Trench Schottky Rectifier TSF30U60 Taiwan Semiconductor TSF30U60C datasheet
04-18-2016 TSF40H100C Trench Schottky Rectifier FEATURES Taiwan Semiconductor TSF40H100C datasheet
04-18-2016 TSF40H120C Trench Schottky Rectifier FEATURES Taiwan Semiconductor TSF40H120C datasheet
04-18-2016 TSF40H150C Trench Schottky Rectifier FEATURES Taiwan Semiconductor TSF40H150C datasheet
04-18-2016 TSF40H200C Trench Schottky Rectifier FEATURES Taiwan Semiconductor TSF40H200C datasheet
04-18-2016 TSF40L100C TSF40L100C thru TSF40L200C Taiwan S Taiwan Semiconductor TSF40L100C datasheet
04-18-2016 TSF40L120C TSF40L100C thru TSF40L200C Taiwan S Taiwan Semiconductor TSF40L120C datasheet
04-18-2016 TSF40L150C TSF40L100C thru TSF40L200C Taiwan S Taiwan Semiconductor TSF40L150C datasheet
04-18-2016 TSF40L200C TSF40L100C thru TSF40L200C Taiwan S Taiwan Semiconductor TSF40L200C datasheet
04-18-2016 TSF40L45C TSF40L45C thru TSF40L60C Taiwan Sem Taiwan Semiconductor TSF40L45C datasheet
04-18-2016 TSF40L60C TSF40L45C thru TSF40L60C Taiwan Sem Taiwan Semiconductor TSF40L60C datasheet
04-18-2016 TSI10H100CW TSI10H100CW - TSI10H200CW Taiwan Se Taiwan Semiconductor TSI10H100CW datasheet
04-18-2016 TSI10H120CW TSI10H100CW - TSI10H200CW Taiwan Se Taiwan Semiconductor TSI10H120CW datasheet
04-18-2016 TSI10H150CW TSI10H100CW - TSI10H200CW Taiwan Se Taiwan Semiconductor TSI10H150CW datasheet
04-18-2016 TSI10H200CW TSI10H100CW - TSI10H200CW Taiwan Se Taiwan Semiconductor TSI10H200CW datasheet
04-18-2016 TSI20H100CW TSI20H100CW - TSI20H200CW Taiwan Se Taiwan Semiconductor TSI20H100CW datasheet
04-18-2016 TSI20H120CW TSI20H100CW - TSI20H200CW Taiwan Se Taiwan Semiconductor TSI20H120CW datasheet
04-18-2016 TSI20H150CW TSI20H100CW - TSI20H200CW Taiwan Se Taiwan Semiconductor TSI20H150CW datasheet
04-18-2016 TSI20H200CW TSI20H100CW - TSI20H200CW Taiwan Se Taiwan Semiconductor TSI20H200CW datasheet
04-18-2016 TSI30H100CW TSI30H100CW - TSI30H200CW Taiwan Se Taiwan Semiconductor TSI30H100CW datasheet
04-18-2016 TSI30H120CW TSI30H100CW - TSI30H200CW Taiwan Se Taiwan Semiconductor TSI30H120CW datasheet
04-18-2016 TSI30H150CW TSI30H100CW - TSI30H200CW Taiwan Se Taiwan Semiconductor TSI30H150CW datasheet
04-18-2016 TSI30H200CW TSI30H100CW - TSI30H200CW Taiwan Se Taiwan Semiconductor TSI30H200CW datasheet
04-18-2016 AP55T10GI-HF Advanced Power Electronics Corp. A Advanced Power Electronics AP55T10GI-HF datasheet
04-18-2016 TSN520M60 TSN520M60 Taiwan Semiconductor 20A Taiwan Semiconductor TSN520M60 datasheet
04-18-2016 TSN525M60 25A, 60V Trench Schottky Rectifier Taiwan Semiconductor TSN525M60 datasheet
04-18-2016 TSP10H200S TSP10H200S Taiwan Semiconductor Tr Taiwan Semiconductor TSP10H200S datasheet
04-18-2016 TSP10H45S TSP10H45S thru TSP10H60S Taiwan Sem Taiwan Semiconductor TSP10H45S datasheet
04-18-2016 TSP10H60S TSP10H45S thru TSP10H60S Taiwan Sem Taiwan Semiconductor TSP10H60S datasheet
04-18-2016 TSP10U100S TSP10U100S thru TSP10U120S Taiwan S Taiwan Semiconductor TSP10U100S datasheet
04-18-2016 TSP10U120S TSP10U100S thru TSP10U120S Taiwan S Taiwan Semiconductor TSP10U120S datasheet
04-18-2016 TSP10U45S TSP10U45S Taiwan Semiconductor 10A Taiwan Semiconductor TSP10U45S datasheet
04-18-2016 TSP10U60S TSP10U60S Taiwan Semiconductor Tre Taiwan Semiconductor TSP10U60S datasheet
04-18-2016 TSP12U120S TSP12U120S Taiwan Semiconductor Tr Taiwan Semiconductor TSP12U120S datasheet
04-18-2016 TSP20U60S TSP20U60S Taiwan Semiconductor Tre Taiwan Semiconductor TSP20U60S datasheet
04-18-2016 TSP8A100S Trench Schottky Rectifier TSP8A100 Taiwan Semiconductor TSP8A100S datasheet
04-18-2016 TSPB10U45S TSPB10U45S Taiwan Semiconductor Tr Taiwan Semiconductor TSPB10U45S datasheet
04-18-2016 TSPB15U50S TSPB15U50S Taiwan Semiconductor Tr Taiwan Semiconductor TSPB15U50S datasheet
04-18-2016 TSS0230LU Small Signal Product TSS0230LU Tai Taiwan Semiconductor TSS0230LU datasheet
04-18-2016 TSS0230U Small Signal Product Surface Mount Taiwan Semiconductor TSS0230U datasheet
04-18-2016 TSSA3U60 TSSA3U60 3A, 60V Trench Schottky R Taiwan Semiconductor TSSA3U60 datasheet
04-18-2016 TSSA5U50 TSSA5U50 - TSSA5U60 Taiwan Semicond Taiwan Semiconductor TSSA5U50 datasheet
04-18-2016 TSSA5U60 TSSA5U50 - TSSA5U60 Taiwan Semicond Taiwan Semiconductor TSSA5U60 datasheet
04-18-2016 TSSE3H45 TSSE3H45 - TSSE3H60 Taiwan Semicond Taiwan Semiconductor TSSE3H45 datasheet
04-18-2016 TSSE3H60 TSSE3H45 - TSSE3H60 Taiwan Semicond Taiwan Semiconductor TSSE3H60 datasheet
04-18-2016 TST20H100CW TST20H100CW thru TST20H200CW Taiwan Taiwan Semiconductor TST20H100CW datasheet
04-18-2016 TST20H120CW TST20H100CW thru TST20H200CW Taiwan Taiwan Semiconductor TST20H120CW datasheet
04-18-2016 TST20H150CW TST20H100CW thru TST20H200CW Taiwan Taiwan Semiconductor TST20H150CW datasheet
04-18-2016 TST20H200CW TST20H100CW thru TST20H200CW Taiwan Taiwan Semiconductor TST20H200CW datasheet
04-18-2016 S-LP9435LT1G LESHAN RADIO COMPANY, LTD. 30V P-C LRC S-LP9435LT1G datasheet
04-18-2016 LRB461WT1G LESHAN RADIO COMPANY, LTD. Schottk LRC LRB461WT1G datasheet
04-18-2016 S-LRB461WT1G LESHAN RADIO COMPANY, LTD. Schottk LRC S-LRB461WT1G datasheet
04-18-2016 LRB500V-40T1G LESHAN RADIO COMPANY, LTD. Surface LRC LRB500V-40T1G datasheet
04-18-2016 S-LRB500V-40T1G LESHAN RADIO COMPANY, LTD. Surface LRC S-LRB500V-40T1G datasheet
04-18-2016 LRB501V-40T1G LESHAN RADIO COMPANY, LTD. Surface LRC LRB501V-40T1G datasheet
04-18-2016 S-LRB501V-40T1G LESHAN RADIO COMPANY, LTD. Surface LRC S-LRB501V-40T1G datasheet
04-18-2016 LRB520S-30T1G LESHAN RADIO COMPANY, LTD. SCHOTTK LRC LRB520S-30T1G datasheet
04-18-2016 S-LRB520S-30T1G LESHAN RADIO COMPANY, LTD. SCHOTTK LRC S-LRB520S-30T1G datasheet
04-18-2016 LRB521BS-30T5G LESHAN RADIO COMPANY, LTD. SCHOTTK LRC LRB521BS-30T5G datasheet
04-18-2016 S-LRB521BS-30T5G LESHAN RADIO COMPANY, LTD. SCHOTTK LRC S-LRB521BS-30T5G datasheet
04-18-2016 LRB521BS-40T5G LESHAN RADIO COMPANY, LTD. SCHOTTK LRC LRB521BS-40T5G datasheet
04-18-2016 ADA8282 Data Sheet FEATURES 4 channels of l Analog Devices ADA8282 datasheet
04-18-2016 AD8285 CS SCLK SDIO AUX CLK+ CLK– 11952- Analog Devices AD8285 datasheet
04-18-2016 AD8284 Data Sheet Radar Receive Path AFE: Analog Devices AD8284 datasheet
04-18-2016 LRB521S-30T1G LESHAN RADIO COMPANY, LTD. SCHOTTK LRC LRB521S-30T1G datasheet
04-18-2016 S-LRB521S-30T1G LESHAN RADIO COMPANY, LTD. SCHOTTK LRC S-LRB521S-30T1G datasheet
04-18-2016 LRB550V-30T1G LESHAN RADIO COMPANY, LTD. Schottk LRC LRB550V-30T1G datasheet
04-18-2016 S-LRB550V-30T1G LESHAN RADIO COMPANY, LTD. Schottk LRC S-LRB550V-30T1G datasheet
04-18-2016 LRB551BS-30T5G LESHAN RADIO COMPANY, LTD. Schottk LRC LRB551BS-30T5G datasheet
04-18-2016 LRB551V-30T1G LESHAN RADIO COMPANY, LTD. Schottk LRC LRB551V-30T1G datasheet
04-18-2016 S-LRB551V-30T1G LESHAN RADIO COMPANY, LTD. Schottk LRC S-LRB551V-30T1G datasheet
04-18-2016 LRB751BS-40T5G LESHAN RADIO COMPANY, LTD. SCHOTTK LRC LRB751BS-40T5G datasheet
04-18-2016 S-LRB751BS-40T5G LESHAN RADIO COMPANY, LTD. SCHOTTK LRC S-LRB751BS-40T5G datasheet
04-18-2016 LRB751CS-40T5G LESHAN RADIO COMPANY, LTD. SCHOTTK LRC LRB751CS-40T5G datasheet
04-18-2016 S-LRB751CS-40T5G LESHAN RADIO COMPANY, LTD. SCHOTTK LRC S-LRB751CS-40T5G datasheet
04-18-2016 LSI1012LT1G LESHAN RADIO COMPANY, LTD. N-Chann LRC LSI1012LT1G datasheet
04-18-2016 S-LSI1012LT1G LESHAN RADIO COMPANY, LTD. N-Chann LRC S-LSI1012LT1G datasheet
04-18-2016 LSI1012N3T5G N-Channel 1.8-V (G-S) MOSFET FEATU LRC LSI1012N3T5G datasheet
04-18-2016 S-LSI1012N3T5G N-Channel 1.8-V (G-S) MOSFET FEATU LRC S-LSI1012N3T5G datasheet
04-18-2016 LSI1012XT1G LESHAN RADIO COMPANY, LTD. N-Chann LRC LSI1012XT1G datasheet
04-18-2016 S-LSI1012XT1G LESHAN RADIO COMPANY, LTD. N-Chann LRC S-LSI1012XT1G datasheet
04-18-2016 LSI1013LT1G LESHAN RADIO COMPANY, LTD. P-Chann LRC LSI1013LT1G datasheet
04-18-2016 S-LSI1013LT1G LESHAN RADIO COMPANY, LTD. P-Chann LRC S-LSI1013LT1G datasheet
04-18-2016 LSI1013XT1G P-Channel 1.8-V (G-S) MOSFET LESHA LRC LSI1013XT1G datasheet
04-18-2016 S-LSI1013XT1G P-Channel 1.8-V (G-S) MOSFET LESHA LRC S-LSI1013XT1G datasheet
04-18-2016 LT1640AH U U FEATURES s Allows Safe Board I Linear LT1640AH datasheet
04-18-2016 LT1640AL U U FEATURES s Allows Safe Board I Linear LT1640AL datasheet
04-18-2016 MAX5939 19-2946; Rev 1; 2/06 MAX5921/MAX59 Maxim Integrated MAX5939 datasheet
04-18-2016 LT1942 U U FEATURES ■ Triple Output TFT Linear LT1942 datasheet
04-18-2016 LTC1411 W U FEATURES s Sample Rate: 2.5Msp Linear LTC1411 datasheet
04-18-2016 LTC1669 FEATURES n Micropower 10-Bit DAC in Linear LTC1669 datasheet
04-18-2016 LTC1772B LTC1772B Constant Frequency Current Linear LTC1772B datasheet
04-18-2016 LTC1840 U U FEATURES s Two 8-Bit Current D Linear LTC1840 datasheet
04-18-2016 LUMG2NT1G LESHAN RADIO COMPANY, LTD. Dual NP LRC LUMG2NT1G datasheet
04-18-2016 S-LUMG2NT1G LESHAN RADIO COMPANY, LTD. Dual NP LRC S-LUMG2NT1G datasheet
04-18-2016 UPC1470 DATA SHEET BIPOLAR ANALOG INTEGRATE Renesas UPC1470 datasheet
04-18-2016 V20WM100C-M3 www.vishay.com V20WM100C-M3 Vishay Vishay V20WM100C-M3 datasheet
04-18-2016 V30D45C www.vishay.com V30D45C Vishay Gene Vishay V30D45C datasheet
04-18-2016 V40100C-E3 V40100C-E3, VF40100C, VB40100C-E3, Vishay V40100C-E3 datasheet
04-18-2016 VB40100C-E3 V40100C-E3, VF40100C, VB40100C-E3, Vishay VB40100C-E3 datasheet
04-18-2016 VI40100C-E3 V40100C-E3, VF40100C, VB40100C-E3, Vishay VI40100C-E3 datasheet
04-18-2016 V40170C-M3 www.vishay.com V40170C-M3 Vishay G Vishay V40170C-M3 datasheet
04-18-2016 V40D100C-M3 www.vishay.com V40D100C-M3, V40D10 Vishay V40D100C-M3 datasheet
04-18-2016 V40D100CHM3 www.vishay.com V40D100C-M3, V40D10 Vishay V40D100CHM3 datasheet
04-18-2016 V40DL45BP www.vishay.com V40DL45BP Vishay Ge Vishay V40DL45BP datasheet
04-18-2016 ADG5248F Data Sheet User Defined Fault Prot Analog Devices ADG5248F datasheet
04-18-2016 ADG5249F Data Sheet User Defined Fault Prot Analog Devices ADG5249F datasheet
04-18-2016 V60170G-M3 www.vishay.com V60170G-M3 Vishay G Vishay V60170G-M3 datasheet
04-18-2016 V60D120C www.vishay.com V60D120C Vishay Gen Vishay V60D120C datasheet
04-18-2016 V60D45C www.vishay.com V60D45C Vishay Gene Vishay V60D45C datasheet
04-18-2016 VB60100C www.vishay.com V60100C Vishay Gene Vishay VB60100C datasheet
04-18-2016 VB60170G www.vishay.com VB60170G Vishay Gen Vishay VB60170G datasheet
04-18-2016 VBT4045C-E3 www.vishay.com VBT4045C-E3 Vishay Vishay VBT4045C-E3 datasheet
04-18-2016 VFT2045C-M3 www.vishay.com VFT2045C-M3 Vishay Vishay VFT2045C-M3 datasheet
04-18-2016 VFT6045C-M3 www.vishay.com VFT6045C-M3 Vishay Vishay VFT6045C-M3 datasheet
04-18-2016 VT2045C-M3 VT2045C-M3, VIT2045C-M3, VT2045CHM3 Vishay VT2045C-M3 datasheet
04-18-2016 VIT2045C-M3 VT2045C-M3, VIT2045C-M3, VT2045CHM3 Vishay VIT2045C-M3 datasheet
04-18-2016 VT2045CHM3 VT2045C-M3, VIT2045C-M3, VT2045CHM3 Vishay VT2045CHM3 datasheet
04-18-2016 VIT2045CHM3 VT2045C-M3, VIT2045C-M3, VT2045CHM3 Vishay VIT2045CHM3 datasheet


The site has been moved : DatasheetsPDF.com
Since 2005 - HOME - Link US - All - Contact Us -